createdAt,value
2022-09-15T00:01:17.637Z,18.60
2022-09-15T00:03:46.265Z,18.83
2022-09-15T00:06:14.751Z,20.03
2022-09-15T00:08:43.414Z,19.57
2022-09-15T00:11:18.285Z,19.33
2022-09-15T00:13:46.965Z,18.27
2022-09-15T00:16:15.735Z,18.73
2022-09-15T00:18:44.159Z,19.03
2022-09-15T00:21:14.529Z,19.90
2022-09-15T00:23:42.852Z,20.13
2022-09-15T00:26:14.155Z,20.23
2022-09-15T00:28:42.595Z,18.57
2022-09-15T00:31:14.066Z,19.97
2022-09-15T00:33:42.483Z,19.80
2022-09-15T00:36:13.003Z,20.37
2022-09-15T00:38:41.787Z,20.27
2022-09-15T00:41:12.646Z,20.03
2022-09-15T00:43:48.902Z,20.57
2022-09-15T00:46:19.097Z,19.27
2022-09-15T00:48:52.428Z,19.57
2022-09-15T00:51:25.783Z,19.50
2022-09-15T00:53:54.584Z,20.33
2022-09-15T00:56:24.385Z,18.93
2022-09-15T00:58:56.191Z,19.83
2022-09-15T01:01:26.375Z,21.60
2022-09-15T01:03:54.899Z,21.07
2022-09-15T01:06:30.683Z,21.43
2022-09-15T01:09:04.184Z,20.70
2022-09-15T01:11:33.056Z,19.87
2022-09-15T01:14:03.004Z,21.07
2022-09-15T01:16:41.283Z,20.53
2022-09-15T01:19:46.276Z,21.17
2022-09-15T01:22:33.672Z,21.30
2022-09-15T01:25:09.179Z,18.50
2022-09-15T01:28:30.363Z,20.27
2022-09-15T01:31:02.658Z,19.43
2022-09-15T01:33:36.398Z,19.13
2022-09-15T01:36:12.394Z,19.43
2022-09-15T01:38:51.602Z,18.40
2022-09-15T01:41:25.322Z,19.60
2022-09-15T01:44:00.821Z,18.67
2022-09-15T01:46:33.583Z,18.50
2022-09-15T01:49:03.173Z,18.63
2022-09-15T01:51:34.383Z,17.70
2022-09-15T01:54:05.227Z,18.07
2022-09-15T01:56:33.591Z,18.13
2022-09-15T01:59:01.728Z,20.03
2022-09-15T02:01:43.202Z,18.13
2022-09-15T02:04:16.078Z,19.57
2022-09-15T02:06:53.303Z,18.27
2022-09-15T02:09:26.258Z,17.63
2022-09-15T02:12:02.071Z,18.53
2022-09-15T02:14:43.159Z,18.30
2022-09-15T02:17:18.932Z,18.10
2022-09-15T02:19:51.099Z,17.80
2022-09-15T02:22:23.767Z,18.30
2022-09-15T02:24:58.070Z,17.53
2022-09-15T02:27:29.730Z,16.03
2022-09-15T02:30:03.247Z,17.50
2022-09-15T02:32:34.074Z,16.23
2022-09-15T02:35:04.791Z,15.50
2022-09-15T02:37:33.033Z,15.80
2022-09-15T02:40:02.458Z,15.30
2022-09-15T02:42:33.066Z,17.10
2022-09-15T02:45:02.337Z,16.83
2022-09-15T02:47:32.026Z,15.33
2022-09-15T02:50:01.487Z,17.03
2022-09-15T02:52:29.799Z,16.53
2022-09-15T02:54:58.227Z,17.53
2022-09-15T02:57:26.624Z,18.83
2022-09-15T03:00:12.415Z,18.83
2022-09-15T03:02:41.020Z,18.53
2022-09-15T03:05:11.365Z,18.90
2022-09-15T03:07:39.665Z,18.70
2022-09-15T03:10:09.894Z,21.80
2022-09-15T03:12:41.512Z,20.73
2022-09-15T03:15:11.767Z,18.83
2022-09-15T03:17:41.609Z,21.33
2022-09-15T03:20:12.772Z,19.70
2022-09-15T03:22:41.082Z,20.40
2022-09-15T03:25:10.553Z,21.17
2022-09-15T03:27:38.807Z,21.13
2022-09-15T03:30:08.299Z,21.20
2022-09-15T03:32:39.665Z,20.97
2022-09-15T03:35:08.652Z,21.57
2022-09-15T03:37:38.379Z,20.67
2022-09-15T03:40:07.782Z,21.17
2022-09-15T03:42:36.119Z,22.07
2022-09-15T03:45:04.407Z,20.63
2022-09-15T03:47:33.341Z,21.87
2022-09-15T03:50:01.617Z,21.53
2022-09-15T03:52:32.350Z,21.97
2022-09-15T03:55:01.734Z,21.50
2022-09-15T03:57:30.538Z,20.33
2022-09-15T03:59:58.861Z,21.57
2022-09-15T04:02:26.976Z,21.30
2022-09-15T04:04:55.060Z,20.00
2022-09-15T04:07:23.107Z,20.87
2022-09-15T04:09:51.553Z,21.43
2022-09-15T04:12:21.002Z,20.50
2022-09-15T04:14:49.791Z,19.30
2022-09-15T04:17:18.056Z,20.07
2022-09-15T04:19:46.360Z,20.97
2022-09-15T04:22:17.826Z,21.90
2022-09-15T04:24:48.058Z,21.43
2022-09-15T04:27:16.565Z,21.00
2022-09-15T04:29:46.220Z,20.37
2022-09-15T04:32:14.552Z,21.40
2022-09-15T04:34:42.532Z,20.50
2022-09-15T04:37:12.063Z,21.40
2022-09-15T04:39:40.086Z,20.20
2022-09-15T04:42:08.219Z,19.90
2022-09-15T04:44:36.346Z,22.07
2022-09-15T04:47:06.300Z,20.43
2022-09-15T04:49:34.743Z,21.47
2022-09-15T04:52:06.614Z,20.40
2022-09-15T04:54:37.046Z,20.97
2022-09-15T04:57:05.647Z,21.70
2022-09-15T04:59:33.827Z,22.70
2022-09-15T05:02:02.231Z,22.30
2022-09-15T05:04:31.751Z,22.00
2022-09-15T05:07:00.091Z,21.80
2022-09-15T05:09:29.578Z,21.87
2022-09-15T05:11:57.772Z,21.23
2022-09-15T05:14:26.561Z,20.93
2022-09-15T05:16:54.923Z,22.17
2022-09-15T05:19:23.469Z,21.07
2022-09-15T05:21:52.843Z,21.83
2022-09-15T05:24:21.201Z,22.63
2022-09-15T05:26:49.488Z,20.13
2022-09-15T05:29:17.820Z,23.10
2022-09-15T05:31:45.936Z,20.40
2022-09-15T05:34:14.268Z,21.30
2022-09-15T05:36:42.359Z,20.30
2022-09-15T05:39:11.643Z,22.53
2022-09-15T05:41:40.164Z,21.00
2022-09-15T05:44:08.455Z,19.67
2022-09-15T05:46:36.557Z,19.07
2022-09-15T05:49:05.037Z,21.33
2022-09-15T05:51:33.409Z,19.90
2022-09-15T05:54:01.776Z,22.23
2022-09-15T05:56:31.252Z,21.17
2022-09-15T05:58:59.606Z,22.07
2022-09-15T06:01:29.957Z,23.57
2022-09-15T06:03:58.940Z,21.17
2022-09-15T06:06:28.108Z,20.70
2022-09-15T06:08:59.126Z,21.50
2022-09-15T06:11:30.853Z,22.33
2022-09-15T06:14:01.029Z,22.03
2022-09-15T06:16:32.293Z,21.50
2022-09-15T06:19:01.027Z,22.53
2022-09-15T06:21:30.427Z,24.70
2022-09-15T06:23:59.982Z,22.57
2022-09-15T06:26:30.149Z,23.03
2022-09-15T06:29:00.425Z,23.00
2022-09-15T06:31:31.598Z,22.17
2022-09-15T06:34:00.662Z,22.43
2022-09-15T06:36:30.073Z,20.10
2022-09-15T06:38:58.607Z,21.17
2022-09-15T06:41:33.033Z,23.60
2022-09-15T06:44:16.688Z,22.00
2022-09-15T06:46:45.671Z,21.13
2022-09-15T06:49:14.067Z,23.20
2022-09-15T06:51:42.368Z,20.60
2022-09-15T06:54:10.663Z,21.63
2022-09-15T06:56:38.995Z,20.77
2022-09-15T06:59:07.379Z,21.00
2022-09-15T07:01:37.186Z,22.27
2022-09-15T07:04:08.481Z,20.48
2022-09-15T07:06:37.898Z,21.73
2022-09-15T07:09:06.554Z,21.90
2022-09-15T07:11:34.673Z,20.67
2022-09-15T07:14:02.994Z,19.50
2022-09-15T07:16:31.349Z,20.03
2022-09-15T07:19:03.413Z,20.77
2022-09-15T07:21:31.681Z,18.75
2022-09-15T07:24:02.681Z,18.77
2022-09-15T07:26:33.894Z,18.60
2022-09-15T07:29:04.845Z,17.83
2022-09-15T07:31:35.663Z,18.00
2022-09-15T07:34:06.380Z,16.60
2022-09-15T07:36:35.189Z,17.33
2022-09-15T07:39:04.820Z,17.90
2022-09-15T07:41:33.573Z,18.20
2022-09-15T07:44:01.968Z,17.77
2022-09-15T07:46:32.976Z,18.93
2022-09-15T07:49:02.984Z,18.20
2022-09-15T07:51:32.676Z,19.33
2022-09-15T07:54:01.030Z,17.50
2022-09-15T07:56:29.040Z,19.57
2022-09-15T07:58:58.138Z,18.80
2022-09-15T08:01:26.207Z,16.93
2022-09-15T08:03:54.395Z,18.05
2022-09-15T08:06:24.625Z,16.57
2022-09-15T08:09:00.058Z,16.93
2022-09-15T08:11:29.260Z,16.00
2022-09-15T08:13:57.358Z,16.93
2022-09-15T08:16:26.260Z,16.40
2022-09-15T08:18:55.436Z,15.90
2022-09-15T08:21:23.943Z,16.60
2022-09-15T08:23:55.957Z,17.17
2022-09-15T08:26:25.397Z,16.58
2022-09-15T08:28:53.774Z,16.75
2022-09-15T08:31:24.144Z,15.15
2022-09-15T08:33:54.380Z,16.85
2022-09-15T08:36:22.797Z,15.07
2022-09-15T08:38:50.810Z,16.55
2022-09-15T08:41:23.991Z,15.68
2022-09-15T08:44:00.145Z,15.40
2022-09-15T08:46:34.863Z,15.13
2022-09-15T08:49:09.439Z,15.95
2022-09-15T08:51:44.548Z,14.18
2022-09-15T08:54:17.549Z,14.55
2022-09-15T08:56:47.321Z,14.68
2022-09-15T08:59:17.607Z,14.85
2022-09-15T09:02:08.474Z,13.80
2022-09-15T09:05:17.492Z,13.77
2022-09-15T09:08:04.086Z,14.10
2022-09-15T09:10:42.659Z,12.95
2022-09-15T09:13:21.322Z,15.05
2022-09-15T09:16:04.525Z,13.80
2022-09-15T09:19:20.946Z,14.23
2022-09-15T09:21:55.336Z,13.73
2022-09-15T09:24:33.431Z,12.80
2022-09-15T09:27:01.553Z,13.13
2022-09-15T09:29:35.756Z,13.32
2022-09-15T09:32:04.696Z,12.80
2022-09-15T09:34:38.851Z,12.00
2022-09-15T09:37:12.725Z,11.23
2022-09-15T09:39:41.281Z,11.13
2022-09-15T09:42:15.328Z,12.88
2022-09-15T09:44:45.249Z,11.93
2022-09-15T09:47:15.424Z,11.57
2022-09-15T09:49:46.848Z,11.82
2022-09-15T09:52:32.505Z,11.52
2022-09-15T09:55:02.148Z,10.55
2022-09-15T09:57:31.787Z,11.27
2022-09-15T10:00:01.238Z,9.35
2022-09-15T10:02:29.950Z,11.57
2022-09-15T10:05:18.462Z,10.48
2022-09-15T10:07:46.515Z,11.25
2022-09-15T10:10:22.685Z,11.63
2022-09-15T10:12:55.660Z,11.30
2022-09-15T10:15:27.288Z,9.88
2022-09-15T10:17:56.366Z,10.73
2022-09-15T10:20:32.303Z,9.98
2022-09-15T10:23:05.134Z,10.77
2022-09-15T10:25:57.620Z,10.75
2022-09-15T10:28:25.987Z,11.05
2022-09-15T10:31:05.394Z,10.65
2022-09-15T10:33:35.896Z,10.95
2022-09-15T10:36:12.956Z,11.05
2022-09-15T10:38:44.688Z,10.93
2022-09-15T10:41:24.237Z,11.23
2022-09-15T10:44:09.139Z,11.75
2022-09-15T10:46:49.792Z,11.23
2022-09-15T10:49:33.406Z,10.50
2022-09-15T10:52:11.260Z,9.52
2022-09-15T10:54:59.727Z,8.68
2022-09-15T10:57:39.577Z,8.77
2022-09-15T11:00:12.492Z,9.00
2022-09-15T11:03:11.817Z,7.93
2022-09-15T11:05:52.024Z,8.65
2022-09-15T11:08:38.595Z,7.85
2022-09-15T11:11:14.644Z,8.15
2022-09-15T11:13:56.532Z,7.10
2022-09-15T11:16:35.740Z,7.43
2022-09-15T11:19:21.448Z,7.03
2022-09-15T11:21:52.943Z,7.35
2022-09-15T11:24:40.658Z,7.20
2022-09-15T11:27:15.888Z,8.18
2022-09-15T11:29:59.502Z,6.43
2022-09-15T11:32:31.993Z,7.75
2022-09-15T11:35:16.823Z,8.50
2022-09-15T11:37:49.691Z,6.40
2022-09-15T11:40:24.894Z,7.40
2022-09-15T11:42:58.363Z,7.85
2022-09-15T11:45:29.777Z,8.30
2022-09-15T11:48:00.897Z,8.27
2022-09-15T11:50:35.265Z,7.25
2022-09-15T11:53:09.357Z,7.85
2022-09-15T11:55:40.431Z,9.35
2022-09-15T11:58:22.432Z,9.70
2022-09-15T12:00:56.202Z,8.75
2022-09-15T12:03:29.771Z,8.65
2022-09-15T12:06:04.598Z,8.75
2022-09-15T12:08:37.489Z,8.57
2022-09-15T12:11:11.454Z,7.20
2022-09-15T12:13:41.362Z,9.30
2022-09-15T12:16:10.969Z,10.15
2022-09-15T12:18:46.792Z,9.45
2022-09-15T12:21:21.220Z,9.05
2022-09-15T12:23:58.179Z,9.10
2022-09-15T12:26:28.857Z,7.65
2022-09-15T12:29:02.232Z,8.80
2022-09-15T12:31:35.608Z,8.75
2022-09-15T12:34:06.102Z,8.30
2022-09-15T12:36:54.228Z,7.75
2022-09-15T12:39:32.371Z,7.38
2022-09-15T12:42:12.048Z,7.60
2022-09-15T12:44:44.587Z,6.93
2022-09-15T12:47:35.076Z,7.25
2022-09-15T12:50:22.850Z,7.85
2022-09-15T12:52:54.537Z,7.63
2022-09-15T12:55:24.718Z,7.43
2022-09-15T12:57:55.559Z,7.72
2022-09-15T13:00:42.497Z,7.78
2022-09-15T13:03:30.017Z,7.95
2022-09-15T13:06:16.185Z,8.55
2022-09-15T13:08:53.909Z,6.28
2022-09-15T13:11:40.251Z,6.32
2022-09-15T13:14:14.925Z,8.18
2022-09-15T13:16:50.824Z,8.23
2022-09-15T13:19:23.215Z,8.55
2022-09-15T13:21:59.585Z,9.65
2022-09-15T13:24:43.243Z,8.98
2022-09-15T13:27:13.056Z,9.02
2022-09-15T13:29:47.179Z,9.70
2022-09-15T13:32:24.406Z,10.07
2022-09-15T13:35:18.102Z,8.52
2022-09-15T13:38:21.821Z,8.70
2022-09-15T13:41:32.850Z,9.68
2022-09-15T13:44:34.764Z,7.82
2022-09-15T13:47:14.376Z,8.52
2022-09-15T13:49:52.556Z,8.45
2022-09-15T13:52:34.043Z,8.70
2022-09-15T13:55:20.843Z,9.90
2022-09-15T14:00:55.126Z,8.90
2022-09-15T14:03:28.150Z,9.02
2022-09-15T14:05:57.387Z,8.70
2022-09-15T14:08:28.147Z,9.98
2022-09-15T14:11:00.078Z,9.52
2022-09-15T14:13:30.928Z,8.48
2022-09-15T14:16:01.137Z,8.93
2022-09-15T14:18:29.574Z,9.07
2022-09-15T14:21:02.287Z,8.60
2022-09-15T14:23:30.659Z,9.73
2022-09-15T14:26:01.198Z,8.52
2022-09-15T14:28:33.190Z,8.70
2022-09-15T14:31:02.900Z,8.35
2022-09-15T14:33:38.106Z,8.70
2022-09-15T14:36:14.831Z,8.55
2022-09-15T14:38:42.923Z,8.15
2022-09-15T14:41:20.080Z,7.75
2022-09-15T14:43:49.391Z,8.18
2022-09-15T14:46:20.791Z,9.00
2022-09-15T14:48:49.103Z,9.10
2022-09-15T14:51:22.792Z,8.55
2022-09-15T14:53:55.759Z,8.85
2022-09-15T14:56:26.037Z,8.93
2022-09-15T14:58:59.070Z,9.90
2022-09-15T15:01:34.223Z,11.32
2022-09-15T15:04:10.183Z,9.25
2022-09-15T15:06:42.712Z,10.27
2022-09-15T15:09:18.197Z,10.05
2022-09-15T15:11:48.215Z,8.98
2022-09-15T15:14:17.860Z,9.50
2022-09-15T15:16:52.455Z,9.18
2022-09-15T15:19:42.516Z,8.65
2022-09-15T15:22:18.298Z,8.82
2022-09-15T15:24:49.940Z,8.43
2022-09-15T15:27:41.610Z,8.07
2022-09-15T15:30:33.082Z,8.10
2022-09-15T15:33:03.310Z,7.43
2022-09-15T15:35:33.087Z,7.10
2022-09-15T15:38:07.297Z,8.30
2022-09-15T15:40:37.897Z,6.80
2022-09-15T15:43:08.433Z,8.48
2022-09-15T15:45:49.968Z,9.07
2022-09-15T15:48:18.056Z,7.32
2022-09-15T15:50:46.434Z,7.30
2022-09-15T15:53:14.376Z,8.55
2022-09-15T15:55:44.048Z,7.88
2022-09-15T15:58:13.413Z,7.43
2022-09-15T16:00:45.299Z,7.50
2022-09-15T16:03:14.429Z,7.88
2022-09-15T16:05:44.741Z,7.47
2022-09-15T16:08:17.143Z,7.53
2022-09-15T16:10:49.420Z,5.72
2022-09-15T16:13:19.048Z,6.25
2022-09-15T16:15:48.617Z,6.93
2022-09-15T16:18:16.733Z,6.40
2022-09-15T16:20:45.201Z,6.63
2022-09-15T16:23:16.139Z,7.22
2022-09-15T16:25:49.764Z,7.25
2022-09-15T16:28:18.170Z,7.28
2022-09-15T16:30:46.738Z,6.82
2022-09-15T16:33:17.712Z,7.47
2022-09-15T16:35:51.255Z,7.57
2022-09-15T16:38:20.272Z,7.05
2022-09-15T16:40:48.514Z,6.63
2022-09-15T16:43:18.006Z,7.22
2022-09-15T16:45:46.401Z,6.57
2022-09-15T16:48:14.792Z,6.53
2022-09-15T16:53:32.980Z,7.20
2022-09-15T16:56:01.004Z,7.75
2022-09-15T16:58:29.421Z,7.00
2022-09-15T17:00:57.947Z,5.78
2022-09-15T17:03:27.313Z,6.88
2022-09-15T17:05:58.854Z,7.68
2022-09-15T17:08:29.411Z,6.78
2022-09-15T17:10:58.250Z,6.50
2022-09-15T17:13:30.171Z,8.18
2022-09-15T17:15:59.556Z,6.55
2022-09-15T17:18:28.170Z,6.15
2022-09-15T17:20:58.564Z,7.28
2022-09-15T17:23:28.028Z,6.53
2022-09-15T17:25:59.019Z,7.10
2022-09-15T17:28:29.056Z,7.53
2022-09-15T17:30:59.236Z,6.25
2022-09-15T17:33:28.329Z,6.25
2022-09-15T17:35:57.731Z,7.00
2022-09-15T17:38:26.012Z,6.28
2022-09-15T17:40:55.304Z,5.90
2022-09-15T17:43:25.500Z,6.60
2022-09-15T17:45:53.891Z,5.88
2022-09-15T17:48:23.214Z,6.93
2022-09-15T17:50:52.321Z,6.63
2022-09-15T17:53:23.509Z,5.95
2022-09-15T17:55:52.123Z,6.63
2022-09-15T17:58:20.208Z,6.55
2022-09-15T18:00:48.754Z,5.60
2022-09-15T18:03:23.827Z,5.97
2022-09-15T18:05:53.448Z,6.18
2022-09-15T18:08:23.223Z,5.82
2022-09-15T18:10:51.547Z,5.45
2022-09-15T18:13:23.495Z,5.22
2022-09-15T18:15:51.851Z,5.85
2022-09-15T18:18:21.883Z,5.38
2022-09-15T18:20:51.187Z,5.70
2022-09-15T18:23:21.840Z,5.57
2022-09-15T18:25:51.727Z,5.93
2022-09-15T18:28:20.390Z,5.68
2022-09-15T18:30:50.168Z,6.65
2022-09-15T18:33:20.447Z,6.75
2022-09-15T18:35:49.856Z,7.53
2022-09-15T18:38:18.745Z,7.97
2022-09-15T18:40:47.557Z,7.97
2022-09-15T18:43:17.181Z,7.78
2022-09-15T18:45:45.483Z,8.35
2022-09-15T18:48:14.028Z,6.93
2022-09-15T18:50:43.031Z,8.05
2022-09-15T18:53:11.175Z,7.55
2022-09-15T18:55:42.008Z,7.95
2022-09-15T18:58:10.327Z,7.00
2022-09-15T19:00:40.606Z,7.78
2022-09-15T19:03:10.113Z,6.97
2022-09-15T19:05:38.568Z,7.85
2022-09-15T19:08:08.304Z,6.80
2022-09-15T19:10:38.259Z,7.45
2022-09-15T19:13:06.702Z,9.07
2022-09-15T19:15:35.183Z,7.82
2022-09-15T19:18:05.019Z,9.97
2022-09-15T19:20:33.014Z,8.33
2022-09-15T19:23:01.011Z,7.85
2022-09-15T19:25:29.328Z,8.07
2022-09-15T19:27:57.307Z,8.17
2022-09-15T19:30:25.428Z,8.40
2022-09-15T19:32:53.717Z,7.63
2022-09-15T19:35:23.077Z,7.10
2022-09-15T19:37:51.499Z,7.13
2022-09-15T19:40:20.678Z,6.87
2022-09-15T19:42:49.047Z,7.23
2022-09-15T19:45:17.577Z,7.27
2022-09-15T19:47:45.877Z,7.07
2022-09-15T19:50:14.190Z,7.07
2022-09-15T19:52:43.560Z,6.93
2022-09-15T19:55:13.021Z,6.93
2022-09-15T19:57:42.059Z,6.73
2022-09-15T20:00:12.845Z,6.90
2022-09-15T20:02:41.127Z,7.53
2022-09-15T20:05:09.880Z,7.57
2022-09-15T20:07:38.240Z,7.63
2022-09-15T20:10:08.232Z,6.87
2022-09-15T20:12:36.211Z,7.80
2022-09-15T20:15:04.717Z,8.40
2022-09-15T20:17:32.890Z,6.90
2022-09-15T20:20:00.921Z,6.80
2022-09-15T20:22:28.892Z,7.07
2022-09-15T20:24:57.402Z,8.57
2022-09-15T20:27:26.747Z,7.83
2022-09-15T20:29:54.716Z,8.47
2022-09-15T20:32:28.018Z,8.33
2022-09-15T20:34:56.808Z,9.30
2022-09-15T20:37:24.843Z,7.83
2022-09-15T20:39:52.896Z,7.97
2022-09-15T20:42:21.282Z,8.00
2022-09-15T20:44:50.715Z,7.40
2022-09-15T20:47:19.024Z,7.60
2022-09-15T20:49:46.970Z,8.03
2022-09-15T20:52:14.986Z,7.87
2022-09-15T20:54:43.148Z,8.40
2022-09-15T20:57:11.774Z,7.80
2022-09-15T20:59:40.082Z,6.87
2022-09-15T21:02:10.366Z,6.87
2022-09-15T21:04:38.846Z,7.17
2022-09-15T21:07:07.420Z,6.77
2022-09-15T21:09:35.723Z,7.33
2022-09-15T21:12:04.091Z,7.57
2022-09-15T21:14:32.094Z,7.50
2022-09-15T21:17:00.114Z,6.50
2022-09-15T21:19:29.448Z,6.40
2022-09-15T21:21:58.572Z,7.27
2022-09-15T21:24:26.875Z,7.73
2022-09-15T21:27:12.667Z,7.70
2022-09-15T21:29:40.928Z,7.70
2022-09-15T21:32:09.180Z,6.63
2022-09-15T21:34:38.614Z,7.37
2022-09-15T21:37:06.916Z,7.37
2022-09-15T21:39:34.958Z,7.10
2022-09-15T21:42:03.315Z,7.37
2022-09-15T21:44:31.339Z,6.87
2022-09-15T21:46:59.559Z,8.23
2022-09-15T21:49:27.879Z,7.50
2022-09-15T21:51:57.283Z,7.43
2022-09-15T21:54:25.864Z,6.33
2022-09-15T21:56:54.192Z,7.37
2022-09-15T21:59:22.502Z,7.17
2022-09-15T22:01:51.521Z,7.93
2022-09-15T22:04:19.903Z,6.97
2022-09-15T22:06:50.155Z,6.50
2022-09-15T22:09:21.502Z,6.60
2022-09-15T22:11:50.048Z,6.80
2022-09-15T22:14:18.015Z,6.43
2022-09-15T22:16:46.110Z,8.00
2022-09-15T22:19:14.189Z,7.20
2022-09-15T22:21:42.532Z,7.30
2022-09-15T22:24:13.046Z,7.93
2022-09-15T22:26:43.559Z,6.73
2022-09-15T22:29:11.996Z,6.73
2022-09-15T22:31:41.980Z,6.93
2022-09-15T22:34:10.468Z,7.57
2022-09-15T22:36:38.759Z,6.93
2022-09-15T22:39:06.935Z,6.73
2022-09-15T22:41:36.908Z,7.33
2022-09-15T22:44:07.461Z,6.87
2022-09-15T22:46:35.781Z,6.27
2022-09-15T22:49:04.089Z,7.93
2022-09-15T22:51:32.421Z,7.30
2022-09-15T22:54:03.518Z,7.00
2022-09-15T22:56:31.872Z,6.77
2022-09-15T22:59:00.747Z,6.73
2022-09-15T23:01:31.600Z,6.67
2022-09-15T23:04:01.060Z,6.90
2022-09-15T23:06:31.657Z,6.93
2022-09-15T23:09:01.270Z,6.30
2022-09-15T23:11:32.260Z,6.77
2022-09-15T23:14:00.441Z,6.87
2022-09-15T23:16:31.443Z,6.47
2022-09-15T23:19:00.269Z,6.47
2022-09-15T23:21:28.969Z,6.60
2022-09-15T23:23:57.272Z,6.70
2022-09-15T23:26:26.739Z,6.30
2022-09-15T23:28:55.201Z,7.40
2022-09-15T23:31:23.586Z,6.83
2022-09-15T23:33:53.009Z,6.83
2022-09-15T23:36:21.933Z,6.80
2022-09-15T23:38:50.615Z,6.40
2022-09-15T23:41:19.956Z,6.53
2022-09-15T23:43:48.189Z,7.20
2022-09-15T23:46:16.749Z,7.13
2022-09-15T23:48:45.020Z,6.77
2022-09-15T23:51:14.633Z,6.70
2022-09-15T23:53:43.010Z,6.77
2022-09-15T23:56:11.354Z,6.27
2022-09-15T23:58:39.698Z,6.43
